sensor_id;sensor_type;location;lat;lon;timestamp;P1;durP1;ratioP1;P2;durP2;ratioP2
11473;SDS011;5793;52.238;13.438;2023-05-10T00:00:14;6.80;;;5.17;;
11473;SDS011;5793;52.238;13.438;2023-05-10T00:02:43;8.50;;;4.97;;
11473;SDS011;5793;52.238;13.438;2023-05-10T00:05:11;6.97;;;5.60;;
11473;SDS011;5793;52.238;13.438;2023-05-10T00:07:41;6.93;;;5.43;;
11473;SDS011;5793;52.238;13.438;2023-05-10T00:10:11;8.47;;;5.53;;
11473;SDS011;5793;52.238;13.438;2023-05-10T00:12:39;9.32;;;5.50;;
11473;SDS011;5793;52.238;13.438;2023-05-10T00:15:07;6.07;;;4.83;;
11473;SDS011;5793;52.238;13.438;2023-05-10T00:17:36;6.30;;;5.53;;
11473;SDS011;5793;52.238;13.438;2023-05-10T00:20:05;8.77;;;5.40;;
11473;SDS011;5793;52.238;13.438;2023-05-10T00:22:33;6.83;;;5.20;;
11473;SDS011;5793;52.238;13.438;2023-05-10T00:25:03;5.77;;;5.13;;
11473;SDS011;5793;52.238;13.438;2023-05-10T00:27:32;6.23;;;5.43;;
11473;SDS011;5793;52.238;13.438;2023-05-10T00:30:00;9.17;;;5.53;;
11473;SDS011;5793;52.238;13.438;2023-05-10T00:32:27;7.60;;;6.10;;
11473;SDS011;5793;52.238;13.438;2023-05-10T00:34:55;6.70;;;5.10;;
11473;SDS011;5793;52.238;13.438;2023-05-10T00:37:23;6.93;;;5.50;;
11473;SDS011;5793;52.238;13.438;2023-05-10T00:39:51;7.53;;;5.70;;
11473;SDS011;5793;52.238;13.438;2023-05-10T00:42:20;6.43;;;5.10;;
11473;SDS011;5793;52.238;13.438;2023-05-10T00:44:48;9.30;;;5.70;;
11473;SDS011;5793;52.238;13.438;2023-05-10T00:47:16;7.23;;;5.50;;
11473;SDS011;5793;52.238;13.438;2023-05-10T00:49:44;9.37;;;5.80;;
11473;SDS011;5793;52.238;13.438;2023-05-10T00:52:13;11.23;;;6.50;;
11473;SDS011;5793;52.238;13.438;2023-05-10T00:54:41;8.33;;;5.57;;
11473;SDS011;5793;52.238;13.438;2023-05-10T00:57:09;10.83;;;6.10;;
11473;SDS011;5793;52.238;13.438;2023-05-10T00:59:38;8.00;;;5.93;;
11473;SDS011;5793;52.238;13.438;2023-05-10T01:02:06;7.77;;;5.80;;
11473;SDS011;5793;52.238;13.438;2023-05-10T01:04:34;7.63;;;5.80;;
11473;SDS011;5793;52.238;13.438;2023-05-10T01:07:03;9.53;;;5.60;;
11473;SDS011;5793;52.238;13.438;2023-05-10T01:09:30;9.17;;;5.70;;
11473;SDS011;5793;52.238;13.438;2023-05-10T01:11:59;8.03;;;6.03;;
11473;SDS011;5793;52.238;13.438;2023-05-10T01:14:29;7.80;;;5.70;;
11473;SDS011;5793;52.238;13.438;2023-05-10T01:16:58;9.53;;;6.00;;
11473;SDS011;5793;52.238;13.438;2023-05-10T01:19:28;8.90;;;5.90;;
11473;SDS011;5793;52.238;13.438;2023-05-10T01:22:02;8.53;;;5.40;;
11473;SDS011;5793;52.238;13.438;2023-05-10T01:25:00;8.60;;;6.30;;
11473;SDS011;5793;52.238;13.438;2023-05-10T01:27:52;8.90;;;6.27;;
11473;SDS011;5793;52.238;13.438;2023-05-10T01:33:46;11.70;;;6.07;;
11473;SDS011;5793;52.238;13.438;2023-05-10T01:36:17;15.33;;;6.30;;
11473;SDS011;5793;52.238;13.438;2023-05-10T01:38:53;8.53;;;6.27;;
11473;SDS011;5793;52.238;13.438;2023-05-10T01:41:28;8.93;;;6.50;;
11473;SDS011;5793;52.238;13.438;2023-05-10T01:44:05;7.33;;;6.53;;
11473;SDS011;5793;52.238;13.438;2023-05-10T01:46:38;6.53;;;5.63;;
11473;SDS011;5793;52.238;13.438;2023-05-10T01:49:09;8.03;;;6.07;;
11473;SDS011;5793;52.238;13.438;2023-05-10T01:51:41;7.27;;;6.13;;
11473;SDS011;5793;52.238;13.438;2023-05-10T01:54:14;9.27;;;6.13;;
11473;SDS011;5793;52.238;13.438;2023-05-10T01:56:46;9.27;;;6.60;;
11473;SDS011;5793;52.238;13.438;2023-05-10T01:59:18;7.43;;;6.43;;
11473;SDS011;5793;52.238;13.438;2023-05-10T02:01:47;7.83;;;6.10;;
11473;SDS011;5793;52.238;13.438;2023-05-10T02:04:18;9.67;;;7.00;;
11473;SDS011;5793;52.238;13.438;2023-05-10T02:06:52;8.53;;;6.20;;
11473;SDS011;5793;52.238;13.438;2023-05-10T02:09:22;8.57;;;6.23;;
11473;SDS011;5793;52.238;13.438;2023-05-10T02:11:52;8.40;;;6.43;;
11473;SDS011;5793;52.238;13.438;2023-05-10T02:14:22;7.97;;;6.47;;
11473;SDS011;5793;52.238;13.438;2023-05-10T02:16:51;10.57;;;6.93;;
11473;SDS011;5793;52.238;13.438;2023-05-10T02:19:23;8.10;;;6.80;;
11473;SDS011;5793;52.238;13.438;2023-05-10T02:21:51;8.33;;;6.70;;
11473;SDS011;5793;52.238;13.438;2023-05-10T02:24:19;9.33;;;6.70;;
11473;SDS011;5793;52.238;13.438;2023-05-10T02:26:48;7.97;;;6.63;;
11473;SDS011;5793;52.238;13.438;2023-05-10T02:29:18;8.50;;;6.63;;
11473;SDS011;5793;52.238;13.438;2023-05-10T02:31:46;11.77;;;6.60;;
11473;SDS011;5793;52.238;13.438;2023-05-10T02:34:15;8.40;;;6.30;;
11473;SDS011;5793;52.238;13.438;2023-05-10T02:36:44;8.93;;;6.40;;
11473;SDS011;5793;52.238;13.438;2023-05-10T02:39:12;7.50;;;6.20;;
11473;SDS011;5793;52.238;13.438;2023-05-10T02:41:41;8.53;;;6.30;;
11473;SDS011;5793;52.238;13.438;2023-05-10T02:44:10;9.00;;;7.00;;
11473;SDS011;5793;52.238;13.438;2023-05-10T02:46:41;8.70;;;6.40;;
11473;SDS011;5793;52.238;13.438;2023-05-10T02:49:09;9.80;;;6.87;;
11473;SDS011;5793;52.238;13.438;2023-05-10T02:51:39;8.03;;;6.50;;
11473;SDS011;5793;52.238;13.438;2023-05-10T02:54:11;6.87;;;6.13;;
11473;SDS011;5793;52.238;13.438;2023-05-10T02:56:43;8.17;;;6.30;;
11473;SDS011;5793;52.238;13.438;2023-05-10T02:59:17;9.03;;;6.83;;
11473;SDS011;5793;52.238;13.438;2023-05-10T03:01:45;8.30;;;6.73;;
11473;SDS011;5793;52.238;13.438;2023-05-10T03:04:13;10.70;;;6.27;;
11473;SDS011;5793;52.238;13.438;2023-05-10T03:06:41;8.80;;;6.53;;
11473;SDS011;5793;52.238;13.438;2023-05-10T03:09:11;10.60;;;6.50;;
11473;SDS011;5793;52.238;13.438;2023-05-10T03:11:47;8.10;;;6.00;;
11473;SDS011;5793;52.238;13.438;2023-05-10T03:14:25;9.47;;;6.77;;
11473;SDS011;5793;52.238;13.438;2023-05-10T03:17:04;9.17;;;6.67;;
11473;SDS011;5793;52.238;13.438;2023-05-10T03:19:39;10.83;;;6.77;;
11473;SDS011;5793;52.238;13.438;2023-05-10T03:22:13;10.20;;;6.90;;
11473;SDS011;5793;52.238;13.438;2023-05-10T03:24:49;9.50;;;6.37;;
11473;SDS011;5793;52.238;13.438;2023-05-10T03:27:21;9.67;;;6.20;;
11473;SDS011;5793;52.238;13.438;2023-05-10T03:29:51;8.63;;;7.23;;
11473;SDS011;5793;52.238;13.438;2023-05-10T03:32:20;10.20;;;6.77;;
11473;SDS011;5793;52.238;13.438;2023-05-10T03:34:48;8.30;;;7.00;;
11473;SDS011;5793;52.238;13.438;2023-05-10T03:37:34;10.20;;;7.03;;
11473;SDS011;5793;52.238;13.438;2023-05-10T03:40:04;11.40;;;6.50;;
11473;SDS011;5793;52.238;13.438;2023-05-10T03:42:33;10.43;;;6.37;;
11473;SDS011;5793;52.238;13.438;2023-05-10T03:45:01;7.63;;;6.33;;
11473;SDS011;5793;52.238;13.438;2023-05-10T03:47:29;8.57;;;6.37;;
11473;SDS011;5793;52.238;13.438;2023-05-10T03:49:57;9.20;;;6.23;;
11473;SDS011;5793;52.238;13.438;2023-05-10T03:52:25;9.03;;;6.13;;
11473;SDS011;5793;52.238;13.438;2023-05-10T03:54:53;7.83;;;6.00;;
11473;SDS011;5793;52.238;13.438;2023-05-10T03:57:22;7.77;;;6.40;;
11473;SDS011;5793;52.238;13.438;2023-05-10T03:59:50;7.00;;;5.97;;
11473;SDS011;5793;52.238;13.438;2023-05-10T04:02:18;9.73;;;6.70;;
11473;SDS011;5793;52.238;13.438;2023-05-10T04:04:46;7.97;;;6.57;;
11473;SDS011;5793;52.238;13.438;2023-05-10T04:07:14;7.77;;;5.93;;
11473;SDS011;5793;52.238;13.438;2023-05-10T04:09:42;6.97;;;5.87;;
11473;SDS011;5793;52.238;13.438;2023-05-10T04:12:10;8.00;;;5.97;;
11473;SDS011;5793;52.238;13.438;2023-05-10T04:14:39;8.73;;;5.67;;
11473;SDS011;5793;52.238;13.438;2023-05-10T04:17:07;9.43;;;6.27;;
11473;SDS011;5793;52.238;13.438;2023-05-10T04:19:35;9.77;;;5.97;;
11473;SDS011;5793;52.238;13.438;2023-05-10T04:22:03;7.30;;;5.70;;
11473;SDS011;5793;52.238;13.438;2023-05-10T04:24:31;8.90;;;5.90;;
11473;SDS011;5793;52.238;13.438;2023-05-10T04:26:59;7.87;;;6.03;;
11473;SDS011;5793;52.238;13.438;2023-05-10T04:29:27;8.23;;;5.90;;
11473;SDS011;5793;52.238;13.438;2023-05-10T04:31:56;6.50;;;5.53;;
11473;SDS011;5793;52.238;13.438;2023-05-10T04:34:24;7.47;;;5.60;;
11473;SDS011;5793;52.238;13.438;2023-05-10T04:36:52;8.20;;;5.20;;
11473;SDS011;5793;52.238;13.438;2023-05-10T04:39:20;7.83;;;5.40;;
11473;SDS011;5793;52.238;13.438;2023-05-10T04:41:48;7.70;;;5.13;;
11473;SDS011;5793;52.238;13.438;2023-05-10T04:44:17;10.07;;;4.90;;
11473;SDS011;5793;52.238;13.438;2023-05-10T04:46:45;8.20;;;5.33;;
11473;SDS011;5793;52.238;13.438;2023-05-10T04:49:15;7.03;;;5.63;;
11473;SDS011;5793;52.238;13.438;2023-05-10T04:51:42;6.87;;;5.23;;
11473;SDS011;5793;52.238;13.438;2023-05-10T04:54:11;6.17;;;4.93;;
11473;SDS011;5793;52.238;13.438;2023-05-10T04:56:39;5.87;;;4.80;;
11473;SDS011;5793;52.238;13.438;2023-05-10T04:59:07;6.90;;;4.83;;
11473;SDS011;5793;52.238;13.438;2023-05-10T05:01:35;5.30;;;4.50;;
11473;SDS011;5793;52.238;13.438;2023-05-10T05:04:03;8.63;;;4.57;;
11473;SDS011;5793;52.238;13.438;2023-05-10T05:06:34;7.97;;;5.30;;
11473;SDS011;5793;52.238;13.438;2023-05-10T05:09:05;7.73;;;4.50;;
11473;SDS011;5793;52.238;13.438;2023-05-10T05:11:33;5.97;;;4.70;;
11473;SDS011;5793;52.238;13.438;2023-05-10T05:14:01;10.07;;;4.60;;
11473;SDS011;5793;52.238;13.438;2023-05-10T05:16:30;7.03;;;4.70;;
11473;SDS011;5793;52.238;13.438;2023-05-10T05:18:58;7.17;;;4.80;;
11473;SDS011;5793;52.238;13.438;2023-05-10T05:21:27;6.27;;;4.37;;
11473;SDS011;5793;52.238;13.438;2023-05-10T05:23:56;6.63;;;4.63;;
11473;SDS011;5793;52.238;13.438;2023-05-10T05:26:24;6.70;;;4.40;;
11473;SDS011;5793;52.238;13.438;2023-05-10T05:28:53;6.40;;;4.10;;
11473;SDS011;5793;52.238;13.438;2023-05-10T05:31:21;6.73;;;4.63;;
11473;SDS011;5793;52.238;13.438;2023-05-10T05:33:48;9.97;;;4.70;;
11473;SDS011;5793;52.238;13.438;2023-05-10T05:36:16;6.43;;;4.10;;
11473;SDS011;5793;52.238;13.438;2023-05-10T05:38:44;9.50;;;4.40;;
11473;SDS011;5793;52.238;13.438;2023-05-10T05:41:13;7.57;;;4.37;;
11473;SDS011;5793;52.238;13.438;2023-05-10T05:43:41;5.80;;;4.00;;
11473;SDS011;5793;52.238;13.438;2023-05-10T05:46:09;5.88;;;3.97;;
11473;SDS011;5793;52.238;13.438;2023-05-10T05:48:37;6.78;;;4.72;;
11473;SDS011;5793;52.238;13.438;2023-05-10T05:51:07;6.80;;;4.60;;
11473;SDS011;5793;52.238;13.438;2023-05-10T05:53:35;7.53;;;3.97;;
11473;SDS011;5793;52.238;13.438;2023-05-10T05:56:03;7.27;;;3.77;;
11473;SDS011;5793;52.238;13.438;2023-05-10T05:58:32;4.20;;;3.75;;
11473;SDS011;5793;52.238;13.438;2023-05-10T06:01:00;5.50;;;3.88;;
11473;SDS011;5793;52.238;13.438;2023-05-10T06:03:29;9.52;;;4.40;;
11473;SDS011;5793;52.238;13.438;2023-05-10T06:05:57;6.15;;;3.88;;
11473;SDS011;5793;52.238;13.438;2023-05-10T06:08:25;4.78;;;3.17;;
11473;SDS011;5793;52.238;13.438;2023-05-10T06:10:53;6.00;;;3.55;;
11473;SDS011;5793;52.238;13.438;2023-05-10T06:13:21;5.20;;;2.83;;
11473;SDS011;5793;52.238;13.438;2023-05-10T06:15:50;7.38;;;3.28;;
11473;SDS011;5793;52.238;13.438;2023-05-10T06:18:18;4.07;;;3.13;;
11473;SDS011;5793;52.238;13.438;2023-05-10T06:20:46;4.90;;;3.08;;
11473;SDS011;5793;52.238;13.438;2023-05-10T06:23:13;3.35;;;2.80;;
11473;SDS011;5793;52.238;13.438;2023-05-10T06:25:41;6.15;;;2.90;;
11473;SDS011;5793;52.238;13.438;2023-05-10T06:28:09;5.18;;;3.17;;
11473;SDS011;5793;52.238;13.438;2023-05-10T06:30:37;5.00;;;3.38;;
11473;SDS011;5793;52.238;13.438;2023-05-10T06:33:06;4.75;;;3.17;;
11473;SDS011;5793;52.238;13.438;2023-05-10T06:35:35;5.47;;;3.10;;
11473;SDS011;5793;52.238;13.438;2023-05-10T06:38:03;3.63;;;3.10;;
11473;SDS011;5793;52.238;13.438;2023-05-10T06:40:31;5.05;;;3.05;;
11473;SDS011;5793;52.238;13.438;2023-05-10T06:42:59;5.00;;;3.28;;
11473;SDS011;5793;52.238;13.438;2023-05-10T06:45:26;6.25;;;3.13;;
11473;SDS011;5793;52.238;13.438;2023-05-10T06:47:54;3.70;;;2.85;;
11473;SDS011;5793;52.238;13.438;2023-05-10T06:50:24;5.30;;;2.97;;
11473;SDS011;5793;52.238;13.438;2023-05-10T06:52:55;4.47;;;3.05;;
11473;SDS011;5793;52.238;13.438;2023-05-10T06:55:23;6.32;;;3.03;;
11473;SDS011;5793;52.238;13.438;2023-05-10T06:57:52;7.00;;;3.00;;
11473;SDS011;5793;52.238;13.438;2023-05-10T07:00:22;7.88;;;3.13;;
11473;SDS011;5793;52.238;13.438;2023-05-10T07:02:50;5.70;;;2.97;;
11473;SDS011;5793;52.238;13.438;2023-05-10T07:05:18;6.40;;;3.17;;
11473;SDS011;5793;52.238;13.438;2023-05-10T07:07:48;3.65;;;2.67;;
11473;SDS011;5793;52.238;13.438;2023-05-10T07:10:17;4.57;;;2.72;;
11473;SDS011;5793;52.238;13.438;2023-05-10T07:12:45;10.40;;;3.08;;
11473;SDS011;5793;52.238;13.438;2023-05-10T07:15:14;7.20;;;3.10;;
11473;SDS011;5793;52.238;13.438;2023-05-10T07:17:42;5.25;;;2.75;;
11473;SDS011;5793;52.238;13.438;2023-05-10T07:20:12;4.22;;;2.70;;
11473;SDS011;5793;52.238;13.438;2023-05-10T07:22:40;6.65;;;2.58;;
11473;SDS011;5793;52.238;13.438;2023-05-10T07:25:10;4.68;;;3.15;;
11473;SDS011;5793;52.238;13.438;2023-05-10T07:27:38;6.68;;;2.78;;
11473;SDS011;5793;52.238;13.438;2023-05-10T07:30:06;3.67;;;2.80;;
11473;SDS011;5793;52.238;13.438;2023-05-10T07:32:35;7.50;;;2.55;;
11473;SDS011;5793;52.238;13.438;2023-05-10T07:35:03;3.80;;;2.50;;
11473;SDS011;5793;52.238;13.438;2023-05-10T07:37:33;3.53;;;2.50;;
11473;SDS011;5793;52.238;13.438;2023-05-10T07:40:01;4.63;;;2.35;;
11473;SDS011;5793;52.238;13.438;2023-05-10T07:42:30;4.60;;;2.50;;
11473;SDS011;5793;52.238;13.438;2023-05-10T07:44:58;4.55;;;2.80;;
11473;SDS011;5793;52.238;13.438;2023-05-10T07:47:26;4.15;;;2.95;;
11473;SDS011;5793;52.238;13.438;2023-05-10T07:49:54;13.15;;;3.53;;
11473;SDS011;5793;52.238;13.438;2023-05-10T07:52:22;6.82;;;3.00;;
11473;SDS011;5793;52.238;13.438;2023-05-10T07:54:50;3.33;;;2.33;;
11473;SDS011;5793;52.238;13.438;2023-05-10T07:57:18;4.30;;;2.63;;
11473;SDS011;5793;52.238;13.438;2023-05-10T07:59:47;3.75;;;2.40;;
11473;SDS011;5793;52.238;13.438;2023-05-10T08:02:15;7.90;;;2.60;;
11473;SDS011;5793;52.238;13.438;2023-05-10T08:04:43;7.47;;;2.97;;
11473;SDS011;5793;52.238;13.438;2023-05-10T08:07:14;5.55;;;2.50;;
11473;SDS011;5793;52.238;13.438;2023-05-10T08:09:42;5.15;;;2.38;;
11473;SDS011;5793;52.238;13.438;2023-05-10T08:12:10;3.08;;;2.60;;
11473;SDS011;5793;52.238;13.438;2023-05-10T08:14:38;6.50;;;2.50;;
11473;SDS011;5793;52.238;13.438;2023-05-10T08:17:09;6.18;;;3.15;;
11473;SDS011;5793;52.238;13.438;2023-05-10T08:19:37;5.13;;;2.70;;
11473;SDS011;5793;52.238;13.438;2023-05-10T08:22:05;3.70;;;2.80;;
11473;SDS011;5793;52.238;13.438;2023-05-10T08:24:33;4.28;;;2.80;;
11473;SDS011;5793;52.238;13.438;2023-05-10T08:27:04;5.60;;;2.80;;
11473;SDS011;5793;52.238;13.438;2023-05-10T08:29:32;4.35;;;2.70;;
11473;SDS011;5793;52.238;13.438;2023-05-10T08:32:15;5.15;;;2.42;;
11473;SDS011;5793;52.238;13.438;2023-05-10T08:34:43;4.10;;;2.60;;
11473;SDS011;5793;52.238;13.438;2023-05-10T08:37:11;3.92;;;2.30;;
11473;SDS011;5793;52.238;13.438;2023-05-10T08:39:39;5.47;;;2.47;;
11473;SDS011;5793;52.238;13.438;2023-05-10T08:42:07;5.00;;;2.30;;
11473;SDS011;5793;52.238;13.438;2023-05-10T08:44:36;7.13;;;2.53;;
11473;SDS011;5793;52.238;13.438;2023-05-10T08:47:05;4.30;;;2.33;;
11473;SDS011;5793;52.238;13.438;2023-05-10T08:49:35;4.05;;;2.20;;
11473;SDS011;5793;52.238;13.438;2023-05-10T08:52:07;3.35;;;2.35;;
11473;SDS011;5793;52.238;13.438;2023-05-10T08:54:36;2.83;;;2.35;;
11473;SDS011;5793;52.238;13.438;2023-05-10T08:57:05;9.57;;;2.15;;
11473;SDS011;5793;52.238;13.438;2023-05-10T08:59:33;2.75;;;2.15;;
11473;SDS011;5793;52.238;13.438;2023-05-10T09:02:01;4.25;;;2.20;;
11473;SDS011;5793;52.238;13.438;2023-05-10T09:04:31;3.03;;;2.22;;
11473;SDS011;5793;52.238;13.438;2023-05-10T09:07:01;3.92;;;2.40;;
11473;SDS011;5793;52.238;13.438;2023-05-10T09:09:29;3.08;;;1.80;;
11473;SDS011;5793;52.238;13.438;2023-05-10T09:11:58;3.38;;;2.22;;
11473;SDS011;5793;52.238;13.438;2023-05-10T09:14:26;4.95;;;2.33;;
11473;SDS011;5793;52.238;13.438;2023-05-10T09:16:54;4.00;;;2.03;;
11473;SDS011;5793;52.238;13.438;2023-05-10T09:19:22;2.72;;;1.77;;
11473;SDS011;5793;52.238;13.438;2023-05-10T09:21:50;6.55;;;2.42;;
11473;SDS011;5793;52.238;13.438;2023-05-10T09:24:19;6.90;;;2.40;;
11473;SDS011;5793;52.238;13.438;2023-05-10T09:26:52;6.60;;;2.28;;
11473;SDS011;5793;52.238;13.438;2023-05-10T09:29:20;2.28;;;2.08;;
11473;SDS011;5793;52.238;13.438;2023-05-10T09:31:49;4.53;;;2.05;;
11473;SDS011;5793;52.238;13.438;2023-05-10T09:34:19;3.85;;;2.30;;
11473;SDS011;5793;52.238;13.438;2023-05-10T09:36:51;2.38;;;1.77;;
11473;SDS011;5793;52.238;13.438;2023-05-10T09:39:21;3.15;;;2.20;;
11473;SDS011;5793;52.238;13.438;2023-05-10T09:41:58;6.13;;;2.47;;
11473;SDS011;5793;52.238;13.438;2023-05-10T09:44:26;5.57;;;2.53;;
11473;SDS011;5793;52.238;13.438;2023-05-10T09:46:54;3.33;;;2.00;;
11473;SDS011;5793;52.238;13.438;2023-05-10T09:49:22;2.80;;;2.10;;
11473;SDS011;5793;52.238;13.438;2023-05-10T09:51:59;4.45;;;2.17;;
11473;SDS011;5793;52.238;13.438;2023-05-10T09:54:30;3.45;;;2.00;;
11473;SDS011;5793;52.238;13.438;2023-05-10T09:56:59;5.53;;;2.05;;
11473;SDS011;5793;52.238;13.438;2023-05-10T09:59:28;4.13;;;1.90;;
11473;SDS011;5793;52.238;13.438;2023-05-10T10:01:56;5.28;;;2.15;;
11473;SDS011;5793;52.238;13.438;2023-05-10T10:04:27;4.53;;;2.08;;
11473;SDS011;5793;52.238;13.438;2023-05-10T10:06:58;4.93;;;2.20;;
11473;SDS011;5793;52.238;13.438;2023-05-10T10:09:28;2.13;;;2.00;;
11473;SDS011;5793;52.238;13.438;2023-05-10T10:11:57;7.30;;;2.08;;
11473;SDS011;5793;52.238;13.438;2023-05-10T10:14:26;7.90;;;2.17;;
11473;SDS011;5793;52.238;13.438;2023-05-10T10:16:54;3.75;;;2.00;;
11473;SDS011;5793;52.238;13.438;2023-05-10T10:19:33;4.13;;;1.88;;
11473;SDS011;5793;52.238;13.438;2023-05-10T10:22:03;2.78;;;2.00;;
11473;SDS011;5793;52.238;13.438;2023-05-10T10:24:31;4.43;;;1.92;;
11473;SDS011;5793;52.238;13.438;2023-05-10T10:27:09;9.15;;;2.38;;
11473;SDS011;5793;52.238;13.438;2023-05-10T10:29:48;4.97;;;2.05;;
11473;SDS011;5793;52.238;13.438;2023-05-10T10:32:25;3.15;;;2.10;;
11473;SDS011;5793;52.238;13.438;2023-05-10T10:35:00;4.45;;;2.50;;
11473;SDS011;5793;52.238;13.438;2023-05-10T10:37:42;2.85;;;2.15;;
11473;SDS011;5793;52.238;13.438;2023-05-10T10:48:41;4.47;;;2.33;;
11473;SDS011;5793;52.238;13.438;2023-05-10T10:51:14;3.47;;;2.13;;
11473;SDS011;5793;52.238;13.438;2023-05-10T10:53:42;6.22;;;2.00;;
11473;SDS011;5793;52.238;13.438;2023-05-10T10:56:11;2.78;;;2.30;;
11473;SDS011;5793;52.238;13.438;2023-05-10T10:58:48;7.65;;;2.45;;
11473;SDS011;5793;52.238;13.438;2023-05-10T11:01:18;3.63;;;2.20;;
11473;SDS011;5793;52.238;13.438;2023-05-10T11:06:46;5.13;;;2.40;;
11473;SDS011;5793;52.238;13.438;2023-05-10T11:09:14;3.67;;;2.20;;
11473;SDS011;5793;52.238;13.438;2023-05-10T11:11:49;2.50;;;1.92;;
11473;SDS011;5793;52.238;13.438;2023-05-10T11:14:22;6.97;;;2.55;;
11473;SDS011;5793;52.238;13.438;2023-05-10T11:16:51;5.38;;;2.30;;
11473;SDS011;5793;52.238;13.438;2023-05-10T11:19:19;4.18;;;2.08;;
11473;SDS011;5793;52.238;13.438;2023-05-10T11:21:47;3.60;;;2.03;;
11473;SDS011;5793;52.238;13.438;2023-05-10T11:24:17;5.15;;;2.42;;
11473;SDS011;5793;52.238;13.438;2023-05-10T11:26:49;3.03;;;2.20;;
11473;SDS011;5793;52.238;13.438;2023-05-10T11:29:18;3.20;;;2.25;;
11473;SDS011;5793;52.238;13.438;2023-05-10T11:31:48;3.28;;;2.45;;
11473;SDS011;5793;52.238;13.438;2023-05-10T11:34:23;3.25;;;2.58;;
11473;SDS011;5793;52.238;13.438;2023-05-10T11:36:52;4.85;;;2.20;;
11473;SDS011;5793;52.238;13.438;2023-05-10T11:39:24;3.53;;;2.22;;
11473;SDS011;5793;52.238;13.438;2023-05-10T11:41:54;4.25;;;2.30;;
11473;SDS011;5793;52.238;13.438;2023-05-10T11:44:22;7.18;;;2.55;;
11473;SDS011;5793;52.238;13.438;2023-05-10T11:46:51;4.53;;;2.40;;
11473;SDS011;5793;52.238;13.438;2023-05-10T11:49:19;5.53;;;2.53;;
11473;SDS011;5793;52.238;13.438;2023-05-10T11:51:51;4.05;;;2.03;;
11473;SDS011;5793;52.238;13.438;2023-05-10T11:54:19;5.75;;;2.33;;
11473;SDS011;5793;52.238;13.438;2023-05-10T11:56:47;3.92;;;2.40;;
11473;SDS011;5793;52.238;13.438;2023-05-10T11:59:15;10.85;;;3.00;;
11473;SDS011;5793;52.238;13.438;2023-05-10T12:01:58;5.28;;;2.70;;
11473;SDS011;5793;52.238;13.438;2023-05-10T12:04:27;6.03;;;2.30;;
11473;SDS011;5793;52.238;13.438;2023-05-10T12:06:55;2.92;;;2.20;;
11473;SDS011;5793;52.238;13.438;2023-05-10T12:09:23;4.30;;;2.45;;
11473;SDS011;5793;52.238;13.438;2023-05-10T12:12:08;3.95;;;2.40;;
11473;SDS011;5793;52.238;13.438;2023-05-10T12:14:36;2.90;;;2.30;;
11473;SDS011;5793;52.238;13.438;2023-05-10T12:17:07;6.38;;;2.20;;
11473;SDS011;5793;52.238;13.438;2023-05-10T12:19:39;7.38;;;2.20;;
11473;SDS011;5793;52.238;13.438;2023-05-10T12:22:08;2.97;;;2.05;;
11473;SDS011;5793;52.238;13.438;2023-05-10T12:24:37;2.85;;;2.30;;
11473;SDS011;5793;52.238;13.438;2023-05-10T12:27:05;4.00;;;2.33;;
11473;SDS011;5793;52.238;13.438;2023-05-10T12:29:35;3.17;;;2.15;;
11473;SDS011;5793;52.238;13.438;2023-05-10T12:32:09;6.32;;;2.40;;
11473;SDS011;5793;52.238;13.438;2023-05-10T12:34:37;3.45;;;2.35;;
11473;SDS011;5793;52.238;13.438;2023-05-10T12:37:05;2.53;;;2.33;;
11473;SDS011;5793;52.238;13.438;2023-05-10T12:39:39;3.10;;;2.03;;
11473;SDS011;5793;52.238;13.438;2023-05-10T12:42:08;7.40;;;2.67;;
11473;SDS011;5793;52.238;13.438;2023-05-10T12:44:36;7.20;;;2.65;;
11473;SDS011;5793;52.238;13.438;2023-05-10T12:47:04;4.57;;;2.40;;
11473;SDS011;5793;52.238;13.438;2023-05-10T12:49:34;2.28;;;2.08;;
11473;SDS011;5793;52.238;13.438;2023-05-10T12:52:02;3.40;;;2.47;;
11473;SDS011;5793;52.238;13.438;2023-05-10T12:54:30;6.47;;;3.22;;
11473;SDS011;5793;52.238;13.438;2023-05-10T12:56:58;5.90;;;2.95;;
11473;SDS011;5793;52.238;13.438;2023-05-10T12:59:26;3.20;;;2.90;;
11473;SDS011;5793;52.238;13.438;2023-05-10T13:01:54;3.65;;;3.05;;
11473;SDS011;5793;52.238;13.438;2023-05-10T13:04:22;4.10;;;2.60;;
11473;SDS011;5793;52.238;13.438;2023-05-10T13:06:51;6.78;;;2.65;;
11473;SDS011;5793;52.238;13.438;2023-05-10T13:09:19;5.38;;;3.00;;
11473;SDS011;5793;52.238;13.438;2023-05-10T13:11:47;9.07;;;3.17;;
11473;SDS011;5793;52.238;13.438;2023-05-10T13:14:15;7.07;;;2.78;;
11473;SDS011;5793;52.238;13.438;2023-05-10T13:16:45;7.18;;;2.78;;
11473;SDS011;5793;52.238;13.438;2023-05-10T13:19:13;8.30;;;2.75;;
11473;SDS011;5793;52.238;13.438;2023-05-10T13:21:42;3.05;;;2.55;;
11473;SDS011;5793;52.238;13.438;2023-05-10T13:24:11;2.80;;;2.40;;
11473;SDS011;5793;52.238;13.438;2023-05-10T13:26:40;4.90;;;2.80;;
11473;SDS011;5793;52.238;13.438;2023-05-10T13:29:08;5.43;;;3.35;;
11473;SDS011;5793;52.238;13.438;2023-05-10T13:31:36;4.20;;;2.90;;
11473;SDS011;5793;52.238;13.438;2023-05-10T13:34:04;3.17;;;2.70;;
11473;SDS011;5793;52.238;13.438;2023-05-10T13:36:32;6.07;;;2.50;;
11473;SDS011;5793;52.238;13.438;2023-05-10T13:39:00;5.68;;;2.60;;
11473;SDS011;5793;52.238;13.438;2023-05-10T13:41:30;3.75;;;2.50;;
11473;SDS011;5793;52.238;13.438;2023-05-10T13:43:58;5.30;;;2.75;;
11473;SDS011;5793;52.238;13.438;2023-05-10T13:46:26;3.17;;;2.40;;
11473;SDS011;5793;52.238;13.438;2023-05-10T13:48:54;4.15;;;2.40;;
11473;SDS011;5793;52.238;13.438;2023-05-10T13:51:22;3.08;;;2.60;;
11473;SDS011;5793;52.238;13.438;2023-05-10T13:53:50;3.80;;;2.30;;
11473;SDS011;5793;52.238;13.438;2023-05-10T13:56:18;3.70;;;2.15;;
11473;SDS011;5793;52.238;13.438;2023-05-10T13:58:47;13.80;;;3.40;;
11473;SDS011;5793;52.238;13.438;2023-05-10T14:01:15;4.07;;;2.55;;
11473;SDS011;5793;52.238;13.438;2023-05-10T14:03:43;2.83;;;2.22;;
11473;SDS011;5793;52.238;13.438;2023-05-10T14:06:11;3.20;;;2.45;;
11473;SDS011;5793;52.238;13.438;2023-05-10T14:08:39;3.83;;;2.53;;
11473;SDS011;5793;52.238;13.438;2023-05-10T14:11:07;6.53;;;2.63;;
11473;SDS011;5793;52.238;13.438;2023-05-10T14:13:35;2.90;;;2.50;;
11473;SDS011;5793;52.238;13.438;2023-05-10T14:16:05;4.20;;;2.47;;
11473;SDS011;5793;52.238;13.438;2023-05-10T14:18:33;7.03;;;2.90;;
11473;SDS011;5793;52.238;13.438;2023-05-10T14:21:01;5.75;;;2.88;;
11473;SDS011;5793;52.238;13.438;2023-05-10T14:23:29;3.92;;;2.55;;
11473;SDS011;5793;52.238;13.438;2023-05-10T14:25:57;3.72;;;2.55;;
11473;SDS011;5793;52.238;13.438;2023-05-10T14:28:25;6.50;;;2.75;;
11473;SDS011;5793;52.238;13.438;2023-05-10T14:30:53;3.30;;;2.10;;
11473;SDS011;5793;52.238;13.438;2023-05-10T14:33:23;4.63;;;2.30;;
11473;SDS011;5793;52.238;13.438;2023-05-10T14:35:51;4.50;;;2.25;;
11473;SDS011;5793;52.238;13.438;2023-05-10T14:38:18;5.18;;;2.63;;
11473;SDS011;5793;52.238;13.438;2023-05-10T14:40:46;4.15;;;2.50;;
11473;SDS011;5793;52.238;13.438;2023-05-10T14:43:14;2.42;;;2.08;;
11473;SDS011;5793;52.238;13.438;2023-05-10T14:45:44;3.25;;;2.50;;
11473;SDS011;5793;52.238;13.438;2023-05-10T14:48:12;3.55;;;2.17;;
11473;SDS011;5793;52.238;13.438;2023-05-10T14:50:45;2.40;;;2.13;;
11473;SDS011;5793;52.238;13.438;2023-05-10T14:53:13;3.05;;;2.63;;
11473;SDS011;5793;52.238;13.438;2023-05-10T14:55:41;3.05;;;2.50;;
11473;SDS011;5793;52.238;13.438;2023-05-10T14:58:09;3.63;;;2.63;;
11473;SDS011;5793;52.238;13.438;2023-05-10T15:00:37;3.15;;;2.55;;
11473;SDS011;5793;52.238;13.438;2023-05-10T15:03:05;5.03;;;2.50;;
11473;SDS011;5793;52.238;13.438;2023-05-10T15:05:34;6.95;;;2.83;;
11473;SDS011;5793;52.238;13.438;2023-05-10T15:08:04;4.82;;;2.53;;
11473;SDS011;5793;52.238;13.438;2023-05-10T15:10:32;4.05;;;2.47;;
11473;SDS011;5793;52.238;13.438;2023-05-10T15:13:01;2.55;;;2.17;;
11473;SDS011;5793;52.238;13.438;2023-05-10T15:15:30;3.88;;;2.53;;